Date,TemperatureHighF,TemperatureAvgF,TemperatureLowF,DewpointHighF,DewpointAvgF,DewpointLowF,HumidityHigh,HumidityAvg,HumidityLow,PressureMaxIn,PressureMinIn,WindSpeedMaxMPH,WindSpeedAvgMPH,GustSpeedMaxMPH,PrecipitationSumIn
2013-1-1,29.0,25.2,16.4,26.6,20.0,12.6,91,80,68,30.12,30.01,11,3,12,0.01
2013-1-2,24.5,16.3,8.8,17.9,11.2,4.9,87,80,68,30.21,30.11,8,3,10,0.00
2013-1-3,22.6,18.3,15.0,17.9,11.2,6.7,82,73,68,30.16,30.12,12,6,15,0.00
2013-1-4,27.4,22.4,14.4,22.8,17.7,10.7,90,82,74,30.23,30.15,12,9,22,0.00
2013-1-5,34.0,28.6,21.7,29.5,24.1,18.7,89,83,72,30.26,30.03,9,6,17,0.00
2013-1-6,35.1,31.0,26.5,31.7,27.5,22.9,89,87,81,30.29,29.91,11,7,22,0.00
2013-1-7,34.6,27.7,20.0,26.9,23.4,18.0,93,84,71,30.37,30.13,17,6,24,0.00
2013-1-8,39.3,32.4,25.8,29.9,26.4,22.4,87,79,66,30.22,30.10,17,4,17,0.00
2013-1-9,44.4,39.7,32.6,36.0,31.5,24.1,83,73,57,30.44,30.05,17,8,22,0.00
2013-1-10,41.8,34.6,27.1,35.5,28.5,22.0,93,79,67,30.49,30.03,7,2,11,0.19
2013-1-11,55.3,48.3,37.4,52.0,45.6,35.3,96,91,82,30.02,29.71,17,5,23,0.32
2013-1-12,57.3,50.8,48.2,50.8,47.0,45.1,90,87,77,29.89,29.76,14,8,20,0.00
2013-1-15,29.3,22.7,15.1,23.2,18.8,12.7,91,85,74,30.41,30.13,3,1,8,0.00
2013-1-16,35.4,28.6,21.1,28.2,22.7,19.1,92,79,57,30.12,29.87,11,6,22,0.00
2013-1-17,36.6,30.3,21.8,28.7,23.7,15.5,89,76,61,30.34,30.00,11,7,20,0.01
2013-1-18,38.3,29.5,20.9,26.7,20.3,14.9,82,69,57,30.41,30.00,15,9,29,0.00
2013-1-19,49.2,41.9,36.6,36.2,31.7,26.8,76,67,58,29.99,29.70,14,12,27,0.00
2013-1-20,40.6,22.9,17.3,33.6,14.8,9.9,81,71,55,30.20,29.72,18,10,32,0.00
2013-1-21,18.9,12.5,7.1,11.2,2.3,-1.8,76,63,55,30.19,30.05,19,11,24,0.00
2013-1-22,13.9,8.0,3.2,1.2,-1.4,-3.3,75,65,51,30.34,30.19,16,8,21,0.00
2013-1-23,18.7,14.4,8.6,15.7,6.2,-0.3,88,70,56,30.32,30.08,16,7,19,0.00
2013-1-24,20.4,14.2,6.4,15.1,6.5,2.8,88,72,50,30.61,30.15,15,2,18,0.00
2013-1-25,23.6,20.9,17.7,20.8,15.6,8.4,89,80,66,30.44,29.99,11,3,12,0.00
2013-1-26,27.6,24.8,22.5,22.0,19.7,17.7,90,81,73,30.41,30.05,9,3,11,0.01
2013-1-27,33.3,26.8,20.7,31.5,22.0,16.7,93,82,74,30.41,30.02,10,1,11,0.00
2013-1-28,49.0,43.9,33.4,47.9,42.8,31.6,97,96,93,30.02,29.87,19,6,21,0.24
2013-1-29,59.6,54.1,44.1,56.8,52.9,43.3,98,96,90,29.91,29.31,22,8,31,0.62
2013-1-30,61.1,45.6,28.5,57.5,43.7,25.7,97,93,83,29.40,29.12,20,8,25,0.72
2013-1-31,28.7,21.4,17.9,25.3,16.8,12.8,91,82,73,29.82,29.41,22,13,31,0.00
2013-2-4,25.8,21.7,16.7,22.2,18.9,12.7,93,89,83,30.04,29.82,6,2,12,0.01
2013-2-5,29.8,23.9,14.1,27.8,21.2,12.0,93,90,77,29.98,29.80,8,4,19,0.05
2013-2-6,34.2,28.7,23.8,26.6,22.7,20.9,91,79,61,30.24,29.99,6,2,12,0.07
2013-2-7,41.4,32.8,26.6,32.5,27.4,22.6,94,81,66,30.18,29.75,2,1,10,0.08
2013-2-8,33.7,30.4,26.0,32.2,26.8,21.3,96,87,78,30.32,29.75,13,7,22,0.01
2013-2-9,35.4,26.7,17.3,26.3,21.7,15.1,93,81,68,30.40,30.19,4,1,15,0.00
2013-2-10,47.3,40.3,29.3,45.7,35.9,23.9,95,84,72,30.18,29.59,18,4,22,0.08
2013-2-11,48.5,36.8,30.8,46.0,30.5,24.1,93,78,72,29.94,29.55,26,13,34,0.02
2013-2-12,34.4,30.4,28.2,27.9,24.7,22.6,85,79,72,30.07,29.91,17,6,23,0.00
2013-2-13,43.4,32.8,22.4,32.0,26.7,20.2,92,79,60,29.92,29.71,10,3,13,0.00
2013-2-14,40.6,35.9,32.7,35.4,31.0,24.3,90,82,68,29.91,29.68,19,8,25,0.00
2013-2-15,33.0,28.2,22.4,26.3,22.1,16.7,88,78,59,30.13,29.90,13,5,14,0.00
2013-2-16,24.1,20.3,13.8,19.7,14.8,6.6,88,79,56,30.11,30.03,15,6,18,0.00
2013-2-17,29.2,20.8,14.2,16.3,13.4,10.4,90,74,51,30.21,30.10,9,3,12,0.00
2013-2-18,53.3,37.3,22.0,42.2,28.8,15.0,91,72,58,30.14,29.48,34,6,34,0.15
2013-2-19,44.6,22.6,15.1,41.7,18.5,10.1,92,84,76,30.04,29.42,28,13,34,0.06
2013-2-20,22.6,18.3,13.2,18.2,14.4,9.8,88,84,81,30.30,30.04,18,9,19,0.00
2013-2-21,27.0,23.5,20.3,22.0,18.7,15.8,85,81,77,30.36,30.09,12,4,16,0.00
2013-2-22,34.1,28.3,21.1,32.8,26.0,17.3,95,91,82,30.09,29.84,16,5,18,0.05
2013-2-23,30.2,27.4,25.2,25.1,21.8,19.9,86,79,69,29.93,29.88,14,8,17,0.01
2013-2-24,35.2,28.4,23.0,25.9,22.4,19.5,88,78,66,30.14,29.92,12,4,15,0.07
2013-2-25,41.4,31.9,22.0,31.6,26.1,19.1,90,79,63,30.18,29.98,8,2,10,0.02
2013-2-26,34.0,32.7,30.7,32.4,29.4,25.7,95,87,75,29.98,29.41,18,6,19,0.36
2013-2-27,34.7,32.9,31.4,32.9,31.6,29.9,96,95,92,29.58,29.41,12,4,15,0.23
2013-2-28,37.5,33.9,31.4,33.4,31.5,29.5,96,91,83,29.93,29.56,12,6,14,0.05
2013-3-1,31.9,29.5,25.0,29.7,25.1,19.8,93,84,75,30.10,29.93,10,4,15,0.00
2013-3-2,31.9,27.3,24.8,24.2,20.9,18.8,84,77,67,30.09,30.04,12,6,14,0.00
2013-3-3,32.7,26.3,20.8,23.7,19.4,16.1,86,75,62,30.08,30.01,13,5,16,0.00
2013-3-4,36.4,27.7,17.1,25.3,20.1,14.4,91,74,53,30.13,30.01,6,1,8,0.00
2013-3-5,33.0,30.2,27.0,28.8,26.5,24.5,95,86,74,30.05,29.70,16,5,18,0.00
2013-3-6,34.1,30.4,25.9,29.7,27.4,24.3,94,89,82,30.22,29.79,16,6,19,0.08
2013-3-7,36.3,33.0,26.7,30.4,27.5,23.2,93,81,63,30.37,30.20,9,4,12,0.00
2013-3-8,39.4,29.1,18.9,26.2,22.3,17.0,94,77,52,30.48,30.37,6,1,7,0.01
2013-3-9,43.9,35.5,26.0,35.0,28.9,21.3,86,77,62,30.37,29.93,8,1,10,0.00
2013-3-10,58.4,49.1,40.9,46.3,39.6,34.2,82,70,61,29.93,29.67,12,2,16,0.03
2013-3-11,53.8,44.8,34.4,48.7,41.5,31.7,97,89,63,29.71,29.49,17,7,22,0.18
2013-3-12,34.8,32.5,30.2,31.6,28.2,25.8,92,84,70,29.92,29.71,18,9,22,0.00
2013-3-13,30.7,27.1,25.0,26.7,21.9,18.0,90,81,67,30.27,29.92,19,9,21,0.00
2013-3-14,41.0,31.0,23.2,28.4,21.4,17.1,82,68,44,30.30,30.10,14,5,16,0.00
2013-3-15,46.1,37.5,30.7,40.0,33.8,28.1,96,87,71,30.10,29.74,10,4,11,0.16
2013-3-16,40.1,34.6,29.5,39.0,32.5,24.8,97,92,82,30.05,29.60,11,4,14,0.00
2013-3-17,38.6,30.7,28.0,27.1,24.1,22.1,85,77,59,30.18,30.04,15,4,16,0.01
2013-3-18,35.2,31.0,27.7,34.1,28.3,22.4,96,90,80,30.04,29.56,21,6,25,0.03
2013-3-19,34.8,27.4,21.4,25.6,18.6,14.9,82,69,56,30.01,29.71,25,14,31,0.00
2013-3-20,28.7,24.5,19.3,19.3,15.2,11.6,86,68,55,30.01,29.94,15,8,19,0.00
2013-3-21,32.9,23.5,16.4,23.7,17.6,13.2,89,78,57,30.00,29.93,14,7,18,0.00
2013-3-22,41.0,29.6,21.5,24.1,19.7,17.0,85,68,45,30.04,29.96,11,4,14,0.00
2013-3-23,40.4,31.2,23.0,28.2,23.3,18.1,89,73,55,30.09,29.96,11,3,13,0.00
2013-3-24,35.9,31.5,26.7,27.1,25.6,23.4,88,79,67,29.98,29.54,18,6,20,0.00
2013-3-25,36.4,31.9,27.9,30.0,27.9,25.6,94,85,69,29.94,29.53,16,8,20,0.01
2013-3-26,39.5,34.5,31.3,32.5,29.4,27.4,89,82,67,30.17,29.94,13,6,16,0.00
2013-3-27,43.1,35.6,30.6,33.8,28.5,22.6,91,76,52,30.26,30.17,13,5,16,0.00
2013-3-28,49.8,38.1,27.7,29.9,24.9,21.4,77,60,41,30.30,30.23,10,4,13,0.00
2013-3-29,52.5,40.4,26.9,29.0,24.2,20.5,84,54,34,30.28,30.18,15,2,15,0.00
2013-3-30,55.1,43.0,29.3,35.0,28.1,19.7,78,57,40,30.20,29.88,12,3,15,0.00
2013-3-31,61.5,48.8,38.4,44.9,37.2,29.1,95,66,35,29.88,29.62,18,7,21,0.00
2013-4-1,40.3,34.2,27.5,30.3,21.1,16.1,78,60,41,30.10,29.74,18,7,21,0.00
2013-4-2,42.9,32.1,23.1,23.0,17.1,10.1,81,56,29,30.26,30.10,15,4,21,0.00
2013-4-3,46.8,34.8,23.8,25.5,16.2,11.8,75,49,26,30.41,30.25,13,2,15,0.00
2013-4-4,55.9,41.7,27.6,24.6,19.9,14.1,68,43,26,30.31,29.93,10,2,14,0.00
2013-4-5,53.6,42.9,33.2,31.4,25.4,15.6,76,52,23,30.15,29.91,14,5,16,0.00
2013-4-6,64.0,48.6,32.4,40.0,30.9,25.0,78,53,34,30.12,29.69,15,4,23,0.00
2013-4-7,60.7,54.2,43.9,46.3,41.9,35.8,84,64,47,29.92,29.61,21,8,27,0.03
2013-4-8,71.1,52.7,41.0,57.8,44.7,34.7,94,75,53,29.93,29.67,24,5,34,0.24
2013-4-9,75.8,60.4,45.1,60.6,51.2,41.8,89,73,54,29.96,29.77,18,4,22,0.00
2013-4-10,61.4,50.2,44.6,55.9,47.9,43.2,96,92,81,29.84,29.74,12,4,17,0.34
2013-4-11,44.7,42.3,39.7,43.4,41.2,38.7,97,96,94,29.91,29.53,12,4,26,0.95
2013-4-12,41.4,39.1,37.7,40.0,36.2,32.3,97,89,79,29.65,29.52,16,6,19,0.12